createdAt,value
2024-01-14T00:00:56.548Z,9.23
2024-01-14T00:03:23.581Z,8.83
2024-01-14T00:05:50.257Z,8.27
2024-01-14T00:08:17.293Z,7.43
2024-01-14T00:10:43.937Z,7.33
2024-01-14T00:13:10.550Z,8.20
2024-01-14T00:15:37.206Z,8.97
2024-01-14T00:18:04.575Z,6.63
2024-01-14T00:20:31.220Z,8.93
2024-01-14T00:22:57.815Z,7.90
2024-01-14T00:25:24.888Z,8.33
2024-01-14T00:27:51.454Z,7.43
2024-01-14T00:30:18.209Z,7.90
2024-01-14T00:32:44.827Z,8.63
2024-01-14T00:35:11.582Z,7.87
2024-01-14T00:37:38.264Z,6.23
2024-01-14T00:40:07.712Z,6.67
2024-01-14T00:42:34.508Z,6.23
2024-01-14T00:45:01.985Z,7.93
2024-01-14T00:47:31.702Z,7.47
2024-01-14T00:49:59.125Z,5.67
2024-01-14T00:52:25.765Z,7.17
2024-01-14T00:54:52.429Z,6.00
2024-01-14T00:57:19.278Z,7.57
2024-01-14T00:59:45.852Z,5.30
2024-01-14T01:02:13.408Z,5.10
2024-01-14T01:04:40.065Z,8.37
2024-01-14T01:07:08.072Z,6.10
2024-01-14T01:09:35.848Z,7.40
2024-01-14T01:12:02.484Z,8.27
2024-01-14T01:14:29.149Z,7.57
2024-01-14T01:16:55.723Z,6.63
2024-01-14T01:19:22.614Z,7.40
2024-01-14T01:21:49.244Z,6.13
2024-01-14T01:24:16.367Z,5.20
2024-01-14T01:26:43.052Z,11.50
2024-01-14T01:29:09.563Z,13.07
2024-01-14T01:31:45.467Z,12.97
2024-01-14T01:34:14.503Z,10.93
2024-01-14T01:36:41.515Z,5.13
2024-01-14T01:39:08.176Z,7.30
2024-01-14T01:41:34.839Z,6.57
2024-01-14T01:44:03.727Z,7.07
2024-01-14T01:46:30.533Z,8.47
2024-01-14T01:48:57.222Z,7.97
2024-01-14T01:51:24.006Z,8.30
2024-01-14T01:53:50.751Z,7.87
2024-01-14T01:56:18.015Z,7.90
2024-01-14T01:58:44.729Z,8.10
2024-01-14T02:01:11.596Z,10.80
2024-01-14T02:03:38.620Z,9.30
2024-01-14T02:06:06.616Z,6.80
2024-01-14T02:08:33.239Z,7.93
2024-01-14T02:11:00.914Z,6.17
2024-01-14T02:13:27.481Z,6.17
2024-01-14T02:15:54.100Z,8.10
2024-01-14T02:18:20.863Z,6.43
2024-01-14T02:20:47.696Z,6.80
2024-01-14T02:23:17.059Z,7.97
2024-01-14T02:25:43.616Z,7.50
2024-01-14T02:28:10.295Z,6.57
2024-01-14T02:30:37.400Z,6.80
2024-01-14T02:33:04.289Z,6.83
2024-01-14T02:35:30.973Z,7.23
2024-01-14T02:37:57.552Z,7.10
2024-01-14T02:40:24.163Z,5.37
2024-01-14T02:42:51.136Z,6.40
2024-01-14T02:45:17.858Z,6.63
2024-01-14T02:47:44.523Z,6.57
2024-01-14T02:50:11.172Z,6.30
2024-01-14T02:52:37.726Z,6.77
2024-01-14T02:55:04.722Z,4.80
2024-01-14T02:57:31.448Z,7.10
2024-01-14T02:59:58.105Z,5.53
2024-01-14T03:02:24.732Z,6.47
2024-01-14T03:04:51.420Z,8.27
2024-01-14T03:07:17.981Z,8.20
2024-01-14T03:09:44.693Z,4.60
2024-01-14T03:12:11.313Z,7.50
2024-01-14T03:14:37.950Z,6.10
2024-01-14T03:17:04.523Z,6.83
2024-01-14T03:19:31.276Z,5.80
2024-01-14T03:21:57.956Z,6.43
2024-01-14T03:24:24.621Z,6.90
2024-01-14T03:26:51.336Z,6.80
2024-01-14T03:29:17.950Z,7.40
2024-01-14T03:31:44.510Z,7.30
2024-01-14T03:34:11.351Z,7.40
2024-01-14T03:36:38.019Z,7.73
2024-01-14T03:39:08.457Z,5.83
2024-01-14T03:41:35.108Z,7.67
2024-01-14T03:44:01.713Z,5.43
2024-01-14T03:46:28.340Z,7.10
2024-01-14T03:48:55.128Z,6.83
2024-01-14T03:51:21.801Z,7.77
2024-01-14T03:53:48.628Z,8.40
2024-01-14T03:56:15.274Z,7.40
2024-01-14T03:58:41.900Z,6.50
2024-01-14T04:01:12.586Z,6.53
2024-01-14T04:03:39.240Z,7.97
2024-01-14T04:06:06.603Z,5.40
2024-01-14T04:08:33.275Z,5.57
2024-01-14T04:10:59.841Z,6.17
2024-01-14T04:13:26.491Z,6.73
2024-01-14T04:15:53.188Z,5.60
2024-01-14T04:18:19.811Z,6.93
2024-01-14T04:20:46.378Z,9.33
2024-01-14T04:23:13.025Z,9.67
2024-01-14T04:25:39.620Z,10.90
2024-01-14T04:28:06.214Z,12.40
2024-01-14T04:30:33.133Z,13.67
2024-01-14T04:33:00.018Z,11.27
2024-01-14T04:35:26.647Z,13.83
2024-01-14T04:37:53.271Z,12.20
2024-01-14T04:40:19.807Z,12.47
2024-01-14T04:42:46.523Z,11.57
2024-01-14T04:45:13.189Z,11.07
2024-01-14T04:47:39.951Z,11.10
2024-01-14T04:50:07.001Z,12.23
2024-01-14T04:52:33.702Z,12.40
2024-01-14T04:55:00.326Z,9.37
2024-01-14T04:57:26.912Z,13.20
2024-01-14T04:59:53.516Z,12.33
2024-01-14T05:02:20.149Z,11.50
2024-01-14T05:04:46.976Z,10.40
2024-01-14T05:07:13.562Z,7.60
2024-01-14T05:09:40.143Z,7.93
2024-01-14T05:12:09.895Z,17.77
2024-01-14T05:14:36.531Z,7.47
2024-01-14T05:17:03.345Z,7.40
2024-01-14T05:19:29.967Z,9.80
2024-01-14T05:21:57.921Z,9.23
2024-01-14T05:24:24.532Z,7.53
2024-01-14T05:26:51.093Z,8.80
2024-01-14T05:29:17.790Z,8.00
2024-01-14T05:31:44.364Z,10.40
2024-01-14T05:34:11.079Z,9.17
2024-01-14T05:36:37.860Z,7.90
2024-01-14T05:39:05.789Z,22.27
2024-01-14T05:41:32.551Z,30.53
2024-01-14T05:43:59.271Z,21.57
2024-01-14T05:46:25.860Z,19.10
2024-01-14T05:48:52.712Z,12.37
2024-01-14T05:51:19.631Z,12.83
2024-01-14T05:53:47.121Z,13.90
2024-01-14T05:56:13.927Z,12.90
2024-01-14T05:58:41.168Z,12.37
2024-01-14T06:01:07.792Z,10.77
2024-01-14T06:03:34.373Z,11.70
2024-01-14T06:06:01.533Z,13.33
2024-01-14T06:08:28.202Z,14.60
2024-01-14T06:10:54.763Z,12.23
2024-01-14T06:13:21.523Z,14.50
2024-01-14T06:15:48.121Z,19.87
2024-01-14T06:18:15.022Z,15.47
2024-01-14T06:20:41.670Z,15.70
2024-01-14T06:23:08.206Z,22.67
2024-01-14T06:25:34.805Z,21.60
2024-01-14T06:28:01.888Z,19.27
2024-01-14T06:30:28.514Z,22.90
2024-01-14T06:32:55.796Z,17.50
2024-01-14T06:35:22.866Z,24.50
2024-01-14T06:37:49.741Z,22.97
2024-01-14T06:40:21.517Z,22.50
2024-01-14T06:42:54.877Z,15.03
2024-01-14T06:45:22.267Z,13.27
2024-01-14T06:47:49.167Z,9.40
2024-01-14T06:50:15.955Z,18.80
2024-01-14T06:52:43.802Z,10.70
2024-01-14T06:55:12.305Z,9.33
2024-01-14T06:57:38.872Z,10.33
2024-01-14T07:00:06.494Z,11.27
2024-01-14T07:02:33.395Z,9.90
2024-01-14T07:05:00.044Z,8.10
2024-01-14T07:07:26.645Z,9.97
2024-01-14T07:09:53.356Z,9.10
2024-01-14T07:12:25.262Z,9.50
2024-01-14T07:14:52.671Z,7.90
2024-01-14T07:17:20.264Z,9.33
2024-01-14T07:19:47.080Z,7.80
2024-01-14T07:22:13.816Z,19.23
2024-01-14T07:24:40.467Z,14.50
2024-01-14T07:27:07.156Z,8.83
2024-01-14T07:29:33.766Z,8.80
2024-01-14T07:32:02.483Z,9.13
2024-01-14T07:34:30.732Z,10.17
2024-01-14T07:36:57.705Z,10.80
2024-01-14T07:39:24.260Z,10.90
2024-01-14T07:41:50.800Z,10.53
2024-01-14T07:44:17.341Z,8.93
2024-01-14T07:46:45.142Z,7.97
2024-01-14T07:49:12.197Z,7.07
2024-01-14T07:51:38.892Z,6.60
2024-01-14T07:54:05.591Z,7.60
2024-01-14T07:56:32.208Z,7.27
2024-01-14T07:58:58.835Z,8.90
2024-01-14T08:01:25.514Z,8.93
2024-01-14T08:03:52.236Z,9.00
2024-01-14T08:06:23.668Z,9.87
2024-01-14T08:08:50.545Z,8.53
2024-01-14T08:11:18.187Z,7.83
2024-01-14T08:13:44.867Z,8.47
2024-01-14T08:16:11.637Z,6.73
2024-01-14T08:18:38.378Z,10.03
2024-01-14T08:21:09.366Z,8.77
2024-01-14T08:23:39.130Z,6.07
2024-01-14T08:26:06.302Z,8.33
2024-01-14T08:28:33.577Z,17.43
2024-01-14T08:31:00.432Z,17.53
2024-01-14T08:33:27.526Z,15.77
2024-01-14T08:35:57.254Z,19.27
2024-01-14T08:38:25.456Z,14.17
2024-01-14T08:40:55.167Z,13.20
2024-01-14T08:43:21.790Z,7.43
2024-01-14T08:45:48.442Z,14.43
2024-01-14T08:48:16.461Z,13.73
2024-01-14T08:50:43.258Z,14.90
2024-01-14T08:53:10.559Z,14.63
2024-01-14T08:55:37.099Z,15.40
2024-01-14T08:58:03.710Z,16.30
2024-01-14T09:00:30.302Z,15.03
2024-01-14T09:02:57.033Z,12.57
2024-01-14T09:05:23.950Z,11.90
2024-01-14T09:07:50.561Z,13.83
2024-01-14T09:10:17.172Z,11.87
2024-01-14T09:12:43.779Z,9.67
2024-01-14T09:15:10.409Z,10.20
2024-01-14T09:17:37.241Z,12.00
2024-01-14T09:20:06.704Z,11.50
2024-01-14T09:22:33.779Z,16.50
2024-01-14T09:25:00.290Z,14.90
2024-01-14T09:27:29.266Z,12.93
2024-01-14T09:29:55.960Z,14.43
2024-01-14T09:32:22.585Z,14.70
2024-01-14T09:34:49.280Z,33.57
2024-01-14T09:37:15.873Z,28.60
2024-01-14T09:39:42.726Z,12.93
2024-01-14T09:42:12.210Z,19.33
2024-01-14T09:44:39.102Z,14.33
2024-01-14T09:47:06.716Z,14.60
2024-01-14T09:49:33.491Z,14.20
2024-01-14T09:52:01.656Z,8.83
2024-01-14T09:54:28.298Z,11.10
2024-01-14T09:56:55.575Z,8.70
2024-01-14T09:59:22.412Z,10.13
2024-01-14T10:01:49.642Z,11.30
2024-01-14T10:04:18.019Z,10.07
2024-01-14T10:06:45.646Z,10.93
2024-01-14T10:09:12.505Z,11.43
2024-01-14T10:11:39.223Z,10.10
2024-01-14T10:14:05.857Z,10.37
2024-01-14T10:16:51.627Z,9.87
2024-01-14T10:19:21.745Z,11.00
2024-01-14T10:21:48.719Z,12.20
2024-01-14T10:24:35.433Z,12.23
2024-01-14T10:27:02.145Z,12.60
2024-01-14T10:29:28.680Z,12.57
2024-01-14T10:31:55.290Z,13.60
2024-01-14T10:34:28.478Z,13.77
2024-01-14T10:37:00.732Z,12.13
2024-01-14T10:39:30.555Z,10.53
2024-01-14T10:41:57.182Z,8.57
2024-01-14T10:44:23.845Z,11.47
2024-01-14T10:46:53.093Z,10.80
2024-01-14T10:49:25.645Z,9.60
2024-01-14T10:52:14.910Z,11.73
2024-01-14T10:54:43.408Z,12.77
2024-01-14T10:57:10.077Z,13.10
2024-01-14T10:59:37.651Z,16.60
2024-01-14T11:02:11.658Z,16.50
2024-01-14T11:04:38.415Z,14.47
2024-01-14T11:07:06.700Z,14.53
2024-01-14T11:09:33.362Z,13.63
2024-01-14T11:12:05.761Z,13.43
2024-01-14T11:14:35.910Z,12.40
2024-01-14T11:17:09.301Z,11.50
2024-01-14T11:19:38.561Z,11.97
2024-01-14T11:22:26.846Z,13.87
2024-01-14T11:25:00.313Z,12.70
2024-01-14T11:27:27.097Z,13.07
2024-01-14T11:29:53.684Z,12.47
2024-01-14T11:32:22.680Z,13.10
2024-01-14T11:34:50.613Z,11.07
2024-01-14T11:37:36.473Z,11.33
2024-01-14T11:40:18.064Z,12.07
2024-01-14T11:42:50.844Z,13.70
2024-01-14T11:45:23.911Z,15.03
2024-01-14T11:47:54.576Z,22.20
2024-01-14T11:50:22.095Z,17.73
2024-01-14T11:52:50.420Z,16.60
2024-01-14T11:55:20.613Z,19.43
2024-01-14T11:57:48.392Z,18.67
2024-01-14T12:00:16.989Z,17.03
2024-01-14T12:02:43.570Z,19.83
2024-01-14T12:05:16.698Z,19.40
2024-01-14T12:07:43.856Z,19.97
2024-01-14T12:10:14.450Z,25.20
2024-01-14T12:12:41.575Z,24.27
2024-01-14T12:15:08.485Z,22.80
2024-01-14T12:17:35.129Z,24.63
2024-01-14T12:20:03.289Z,25.70
2024-01-14T12:22:29.986Z,25.50
2024-01-14T12:24:56.709Z,25.10
2024-01-14T12:27:23.426Z,27.27
2024-01-14T12:29:50.015Z,26.10
2024-01-14T12:32:17.524Z,20.03
2024-01-14T12:34:47.601Z,21.47
2024-01-14T12:37:14.621Z,22.23
2024-01-14T12:39:41.594Z,20.60
2024-01-14T12:42:08.535Z,20.33
2024-01-14T12:44:43.506Z,19.40
2024-01-14T12:47:14.542Z,18.83
2024-01-14T12:49:45.330Z,18.27
2024-01-14T12:52:15.205Z,19.77
2024-01-14T12:54:48.143Z,14.33
2024-01-14T12:57:20.699Z,13.57
2024-01-14T12:59:50.761Z,15.23
2024-01-14T13:02:17.442Z,15.87
2024-01-14T13:04:44.284Z,14.67
2024-01-14T13:07:13.150Z,13.03
2024-01-14T13:09:41.021Z,14.10
2024-01-14T13:12:08.194Z,13.27
2024-01-14T13:14:35.007Z,13.70
2024-01-14T13:17:01.599Z,14.23
2024-01-14T13:19:28.464Z,15.50
2024-01-14T13:21:55.106Z,16.60
2024-01-14T13:24:21.730Z,16.70
2024-01-14T13:26:48.372Z,16.77
2024-01-14T13:29:15.133Z,19.33
2024-01-14T13:31:43.393Z,21.90
2024-01-14T13:34:10.987Z,19.83
2024-01-14T13:36:37.774Z,19.27
2024-01-14T13:39:06.093Z,20.97
2024-01-14T13:41:33.421Z,21.10
2024-01-14T13:44:12.642Z,21.63
2024-01-14T13:46:44.234Z,18.13
2024-01-14T13:49:11.176Z,18.27
2024-01-14T13:51:39.002Z,16.73
2024-01-14T13:54:12.323Z,15.80
2024-01-14T13:56:41.772Z,23.37
2024-01-14T13:59:10.377Z,18.00
2024-01-14T14:01:38.443Z,21.97
2024-01-14T14:04:05.929Z,21.13
2024-01-14T14:06:36.856Z,20.83
2024-01-14T14:09:04.555Z,24.27
2024-01-14T14:11:31.512Z,28.03
2024-01-14T14:14:00.302Z,27.97
2024-01-14T14:16:36.060Z,30.40
2024-01-14T14:19:07.677Z,29.63
2024-01-14T14:21:44.950Z,31.47
2024-01-14T14:24:20.286Z,33.63
2024-01-14T14:26:46.882Z,72.57
2024-01-14T14:29:13.447Z,65.60
2024-01-14T14:31:48.232Z,96.30
2024-01-14T14:34:17.233Z,77.27
2024-01-14T14:36:44.393Z,39.27
2024-01-14T14:39:11.405Z,58.90
2024-01-14T14:41:38.228Z,47.93
2024-01-14T14:44:05.913Z,44.27
2024-01-14T14:46:33.115Z,35.70
2024-01-14T14:49:01.176Z,41.53
2024-01-14T14:51:37.522Z,33.63
2024-01-14T14:54:07.005Z,48.13
2024-01-14T14:56:33.659Z,36.23
2024-01-14T14:59:00.300Z,42.20
2024-01-14T15:01:36.892Z,35.87
2024-01-14T15:04:09.501Z,38.83
2024-01-14T15:06:36.510Z,35.27
2024-01-14T15:09:04.754Z,28.27
2024-01-14T15:11:37.860Z,26.63
2024-01-14T15:14:06.092Z,27.57
2024-01-14T15:16:36.017Z,55.50
2024-01-14T15:19:03.215Z,26.17
2024-01-14T15:21:30.930Z,23.10
2024-01-14T15:23:57.766Z,28.13
2024-01-14T15:26:24.453Z,26.10
2024-01-14T15:28:51.030Z,19.27
2024-01-14T15:31:20.073Z,19.70
2024-01-14T15:33:47.147Z,18.97
2024-01-14T15:36:14.408Z,43.67
2024-01-14T15:38:41.544Z,25.93
2024-01-14T15:41:08.449Z,25.17
2024-01-14T15:43:35.902Z,15.63
2024-01-14T15:46:02.765Z,18.67
2024-01-14T15:48:30.401Z,27.10
2024-01-14T15:51:03.828Z,38.20
2024-01-14T15:53:34.976Z,22.77
2024-01-14T15:56:07.750Z,15.90
2024-01-14T15:58:40.209Z,12.50
2024-01-14T16:01:11.194Z,17.60
2024-01-14T16:03:40.655Z,16.57
2024-01-14T16:06:09.939Z,19.43
2024-01-14T16:08:36.881Z,21.13
2024-01-14T16:11:06.525Z,15.70
2024-01-14T16:13:34.910Z,15.60
2024-01-14T16:16:01.942Z,16.23
2024-01-14T16:18:28.790Z,15.80
2024-01-14T16:21:03.009Z,15.07
2024-01-14T16:23:33.917Z,13.33
2024-01-14T16:26:01.086Z,14.80
2024-01-14T16:28:27.818Z,9.77
2024-01-14T16:31:05.227Z,10.87
2024-01-14T16:33:38.250Z,6.73
2024-01-14T16:36:05.758Z,8.50
2024-01-14T16:38:32.985Z,6.07
2024-01-14T16:41:04.459Z,6.07
2024-01-14T16:43:33.267Z,5.57
2024-01-14T16:46:00.410Z,8.00
2024-01-14T16:48:27.731Z,9.67
2024-01-14T16:51:06.765Z,10.50
2024-01-14T16:53:36.915Z,6.30
2024-01-14T16:56:04.010Z,7.70
2024-01-14T16:58:30.913Z,6.40
2024-01-14T17:01:08.461Z,7.67
2024-01-14T17:03:43.071Z,5.23
2024-01-14T17:06:13.314Z,4.53
2024-01-14T17:08:42.398Z,5.47
2024-01-14T17:11:10.768Z,6.10
2024-01-14T17:13:38.005Z,5.60
2024-01-14T17:16:09.871Z,5.60
2024-01-14T17:18:40.590Z,6.27
2024-01-14T17:21:08.091Z,3.97
2024-01-14T17:23:35.221Z,4.03
2024-01-14T17:28:33.599Z,4.60
2024-01-14T17:31:00.868Z,3.90
2024-01-14T17:33:28.846Z,5.87
2024-01-14T17:38:25.883Z,6.03
2024-01-14T17:40:52.630Z,3.77
2024-01-14T17:43:19.456Z,4.27
2024-01-14T17:45:58.526Z,4.87
2024-01-14T17:48:33.171Z,10.03
2024-01-14T17:51:00.838Z,9.70
2024-01-14T17:53:27.662Z,6.23
2024-01-14T17:55:54.501Z,9.87
2024-01-14T17:58:21.322Z,4.67
2024-01-14T18:00:48.325Z,8.87
2024-01-14T18:03:15.582Z,7.83
2024-01-14T18:06:01.105Z,8.35
2024-01-14T18:08:28.032Z,13.47
2024-01-14T18:10:54.792Z,7.03
2024-01-14T18:13:21.690Z,9.80
2024-01-14T18:15:49.376Z,10.70
2024-01-14T18:18:17.123Z,38.83
2024-01-14T18:20:44.411Z,9.43
2024-01-14T18:23:13.555Z,13.97
2024-01-14T18:25:41.843Z,10.37
2024-01-14T18:28:08.987Z,7.13
2024-01-14T18:30:36.126Z,7.50
2024-01-14T18:33:10.205Z,6.77
2024-01-14T18:35:40.321Z,6.67
2024-01-14T18:38:07.735Z,5.47
2024-01-14T18:40:34.567Z,7.60
2024-01-14T18:43:01.556Z,6.70
2024-01-14T18:45:30.605Z,6.20
2024-01-14T18:47:59.850Z,6.90
2024-01-14T18:50:27.664Z,8.07
2024-01-14T18:52:54.678Z,7.33
2024-01-14T18:55:22.217Z,7.27
2024-01-14T18:57:49.249Z,6.70
2024-01-14T19:00:16.265Z,23.77
2024-01-14T19:02:48.641Z,49.93
2024-01-14T19:05:15.834Z,61.13
2024-01-14T19:07:42.664Z,24.53
2024-01-14T19:10:10.184Z,15.63
2024-01-14T19:12:37.483Z,10.80
2024-01-14T19:15:05.143Z,10.33
2024-01-14T19:17:34.969Z,16.17
2024-01-14T19:20:02.241Z,6.53
2024-01-14T19:22:29.204Z,6.83
2024-01-14T19:24:55.832Z,6.70
2024-01-14T19:27:22.828Z,5.40
2024-01-14T19:29:49.798Z,6.70
2024-01-14T19:32:16.622Z,5.27
2024-01-14T19:34:44.108Z,11.50
2024-01-14T19:37:11.409Z,10.13
2024-01-14T19:39:41.518Z,7.83
2024-01-14T19:42:10.051Z,7.97
2024-01-14T19:44:37.282Z,5.83
2024-01-14T19:47:04.156Z,7.23
2024-01-14T19:49:30.967Z,4.27
2024-01-14T19:51:58.076Z,5.77
2024-01-14T19:54:26.230Z,6.50
2024-01-14T19:56:54.215Z,7.73
2024-01-14T19:59:22.109Z,5.83
2024-01-14T20:01:49.391Z,4.90
2024-01-14T20:04:16.210Z,5.00
2024-01-14T20:06:45.235Z,5.10
2024-01-14T20:09:13.276Z,4.67
2024-01-14T20:11:42.935Z,5.47
2024-01-14T20:14:09.895Z,5.27
2024-01-14T20:16:43.200Z,6.03
2024-01-14T20:19:09.930Z,5.93
2024-01-14T20:21:36.594Z,10.57
2024-01-14T20:24:03.457Z,8.97
2024-01-14T20:26:30.472Z,8.67
2024-01-14T20:28:56.995Z,9.23
2024-01-14T20:31:23.732Z,6.60
2024-01-14T20:33:50.589Z,6.60
2024-01-14T20:36:17.295Z,7.10
2024-01-14T20:38:43.875Z,7.97
2024-01-14T20:41:11.159Z,10.30
2024-01-14T20:43:37.766Z,12.80
2024-01-14T20:46:05.628Z,13.03
2024-01-14T20:48:32.804Z,11.37
2024-01-14T20:50:59.517Z,8.80
2024-01-14T20:53:26.109Z,7.20
2024-01-14T20:55:52.730Z,6.57
2024-01-14T20:58:19.620Z,6.07
2024-01-14T21:00:46.276Z,6.47
2024-01-14T21:03:13.034Z,6.07
2024-01-14T21:05:39.654Z,7.00
2024-01-14T21:08:06.410Z,6.50
2024-01-14T21:10:33.135Z,5.37
2024-01-14T21:12:59.741Z,4.80
2024-01-14T21:15:26.904Z,5.93
2024-01-14T21:17:53.549Z,5.30
2024-01-14T21:20:20.138Z,5.20
2024-01-14T21:22:47.085Z,4.90
2024-01-14T21:25:14.163Z,3.90
2024-01-14T21:27:41.797Z,4.20
2024-01-14T21:30:09.636Z,4.50
2024-01-14T21:32:36.462Z,5.00
2024-01-14T21:35:03.736Z,4.17
2024-01-14T21:37:30.993Z,4.87
2024-01-14T21:39:58.350Z,5.73
2024-01-14T21:42:24.944Z,3.57
2024-01-14T21:44:51.864Z,4.07
2024-01-14T21:47:18.418Z,3.50
2024-01-14T21:49:45.052Z,3.27
2024-01-14T21:52:11.751Z,3.60
2024-01-14T21:54:40.369Z,5.40
2024-01-14T21:57:07.069Z,7.90
2024-01-14T21:59:33.727Z,14.90
2024-01-14T22:02:00.311Z,10.17
2024-01-14T22:04:27.026Z,16.70
2024-01-14T22:06:53.904Z,16.57
2024-01-14T22:09:20.979Z,23.70
2024-01-14T22:11:48.068Z,13.07
2024-01-14T22:14:14.687Z,17.90
2024-01-14T22:16:41.285Z,35.67
2024-01-14T22:19:10.674Z,22.00
2024-01-14T22:21:38.316Z,23.00
2024-01-14T22:24:05.292Z,27.63
2024-01-14T22:26:31.933Z,21.40
2024-01-14T22:28:58.585Z,11.20
2024-01-14T22:31:25.452Z,6.60
2024-01-14T22:33:55.404Z,6.47
2024-01-14T22:36:22.129Z,7.33
2024-01-14T22:38:50.601Z,8.50
2024-01-14T22:41:17.460Z,6.70
2024-01-14T22:43:44.031Z,6.33
2024-01-14T22:46:12.166Z,7.07
2024-01-14T22:48:39.039Z,6.40
2024-01-14T22:51:05.992Z,4.67
2024-01-14T22:53:32.627Z,5.53
2024-01-14T22:55:59.393Z,5.20
2024-01-14T22:58:25.971Z,8.07
2024-01-14T23:00:53.195Z,9.40
2024-01-14T23:03:20.163Z,10.87
2024-01-14T23:05:46.853Z,4.27
2024-01-14T23:08:13.507Z,3.20
2024-01-14T23:10:41.070Z,3.57
2024-01-14T23:13:07.801Z,3.20
2024-01-14T23:15:34.508Z,3.17
2024-01-14T23:18:01.407Z,3.40
2024-01-14T23:20:28.162Z,3.73
2024-01-14T23:22:54.796Z,3.13
2024-01-14T23:25:21.374Z,3.07
2024-01-14T23:27:48.064Z,5.90
2024-01-14T23:30:15.045Z,4.50
2024-01-14T23:32:41.727Z,4.90
2024-01-14T23:35:08.791Z,6.47
2024-01-14T23:37:35.454Z,6.67
2024-01-14T23:40:02.506Z,7.03
2024-01-14T23:42:29.222Z,6.20
2024-01-14T23:44:56.049Z,6.57
2024-01-14T23:47:22.672Z,5.87
2024-01-14T23:49:49.609Z,5.83
2024-01-14T23:52:16.386Z,8.00
2024-01-14T23:54:43.151Z,7.40
2024-01-14T23:57:09.932Z,7.53
2024-01-14T23:59:36.991Z,6.00
